createdAt,value
2022-10-09T00:02:55.483Z,19.38
2022-10-09T00:11:03.392Z,19.23
2022-10-09T00:19:08.762Z,19.55
2022-10-09T00:27:16.671Z,20.02
2022-10-09T00:35:22.231Z,20.33
2022-10-09T00:43:47.463Z,19.25
2022-10-09T00:51:54.641Z,17.10
2022-10-09T01:00:04.861Z,16.85
2022-10-09T01:08:17.303Z,17.38
2022-10-09T01:16:30.247Z,16.90
2022-10-09T01:24:42.230Z,17.57
2022-10-09T01:32:53.770Z,17.33
2022-10-09T01:40:59.974Z,17.48
2022-10-09T01:49:18.496Z,18.75
2022-10-09T01:57:30.436Z,16.92
2022-10-09T02:05:40.145Z,18.85
2022-10-09T02:13:46.861Z,18.05
2022-10-09T02:21:58.615Z,16.52
2022-10-09T02:30:04.618Z,18.92
2022-10-09T02:38:12.529Z,17.45
2022-10-09T02:46:18.225Z,16.30
2022-10-09T02:54:26.127Z,15.15
2022-10-09T03:02:31.511Z,13.57
2022-10-09T03:10:42.043Z,15.80
2022-10-09T03:18:48.150Z,15.60
2022-10-09T03:26:56.104Z,18.83
2022-10-09T03:35:01.408Z,14.70
2022-10-09T03:43:09.969Z,13.73
2022-10-09T03:51:15.258Z,13.40
2022-10-09T03:59:23.194Z,13.00
2022-10-09T04:07:28.550Z,13.07
2022-10-09T04:15:36.959Z,13.93
2022-10-09T04:23:42.539Z,12.48
2022-10-09T04:31:50.499Z,11.70
2022-10-09T04:39:55.786Z,11.95
2022-10-09T04:48:03.693Z,12.13
2022-10-09T04:56:12.294Z,11.93
2022-10-09T05:04:20.165Z,12.15
2022-10-09T05:12:25.487Z,10.07
2022-10-09T05:20:33.433Z,10.15
2022-10-09T05:28:39.238Z,11.55
2022-10-09T05:36:47.298Z,11.27
2022-10-09T05:44:52.565Z,10.80
2022-10-09T05:53:00.419Z,11.07
2022-10-09T06:01:05.731Z,11.50
2022-10-09T06:09:14.901Z,10.15
2022-10-09T06:17:20.245Z,10.27
2022-10-09T06:25:28.188Z,10.43
2022-10-09T06:33:35.000Z,10.32
2022-10-09T06:41:42.982Z,9.52
2022-10-09T06:50:07.918Z,10.25
2022-10-09T06:58:15.809Z,10.43
2022-10-09T07:06:23.236Z,11.27
2022-10-09T07:14:33.198Z,11.30
2022-10-09T07:22:38.578Z,10.77
2022-10-09T07:30:46.441Z,11.55
2022-10-09T07:38:54.039Z,11.20
2022-10-09T07:47:01.919Z,10.55
2022-10-09T07:55:08.007Z,11.00
2022-10-09T08:03:15.932Z,12.05
2022-10-09T08:11:22.813Z,12.00
2022-10-09T08:19:30.763Z,13.40
2022-10-09T08:27:36.071Z,12.57
2022-10-09T08:35:44.095Z,12.63
2022-10-09T08:43:56.747Z,12.35
2022-10-09T08:52:15.553Z,11.30
2022-10-09T09:00:23.223Z,10.30
2022-10-09T09:08:42.390Z,10.45
2022-10-09T09:16:54.967Z,8.70
2022-10-09T09:33:18.638Z,7.43
2022-10-09T09:41:26.504Z,7.18
2022-10-09T09:49:31.835Z,5.78
2022-10-09T09:57:45.637Z,6.95
2022-10-09T10:05:51.010Z,5.28
2022-10-09T10:13:59.152Z,4.97
2022-10-09T10:22:05.834Z,4.93
2022-10-09T10:30:17.132Z,4.22
2022-10-09T10:38:28.481Z,4.70
2022-10-09T10:46:49.053Z,4.45
2022-10-09T10:55:01.756Z,3.60
2022-10-09T11:03:34.495Z,3.33
2022-10-09T11:11:47.293Z,3.75
2022-10-09T11:20:33.467Z,4.57
2022-10-09T11:28:46.623Z,4.00
2022-10-09T11:36:54.773Z,9.45
2022-10-09T11:45:17.804Z,4.90
2022-10-09T11:53:28.585Z,5.03
2022-10-09T12:01:37.685Z,4.10
2022-10-09T12:09:47.776Z,4.20
2022-10-09T12:17:53.085Z,4.68
2022-10-09T12:26:02.095Z,5.07
2022-10-09T12:34:18.474Z,4.45
2022-10-09T12:42:27.944Z,4.95
2022-10-09T12:50:36.097Z,4.40
2022-10-09T12:58:45.158Z,4.47
2022-10-09T13:06:52.972Z,3.90
2022-10-09T13:15:02.360Z,4.20
2022-10-09T13:23:08.999Z,4.70
2022-10-09T13:31:18.583Z,7.05
2022-10-09T13:39:23.909Z,4.93
2022-10-09T13:47:32.031Z,4.97
2022-10-09T13:55:37.316Z,3.72
2022-10-09T14:03:47.408Z,4.32
2022-10-09T14:11:52.759Z,4.25
2022-10-09T14:20:00.947Z,4.72
2022-10-09T14:28:06.566Z,4.93
2022-10-09T14:36:18.728Z,4.57
2022-10-09T14:44:23.986Z,5.55
2022-10-09T14:52:31.957Z,4.45
2022-10-09T15:00:37.264Z,4.50
2022-10-09T15:08:47.408Z,4.65
2022-10-09T15:16:52.693Z,5.45
2022-10-09T15:25:00.629Z,5.25
2022-10-09T15:33:06.114Z,6.20
2022-10-09T15:41:24.137Z,6.28
2022-10-09T15:49:29.532Z,6.43
2022-10-09T15:57:37.378Z,6.82
2022-10-09T16:05:45.456Z,6.13
2022-10-09T16:13:53.390Z,7.07
2022-10-09T16:21:58.704Z,7.95
2022-10-09T16:30:08.604Z,8.10
2022-10-09T16:38:14.046Z,10.50
2022-10-09T16:46:26.058Z,10.25
2022-10-09T16:54:31.398Z,10.93
2022-10-09T17:02:39.448Z,11.20
2022-10-09T17:10:45.010Z,10.85
2022-10-09T17:18:54.524Z,10.60
2022-10-09T17:27:00.243Z,11.80
2022-10-09T17:35:09.433Z,12.88
2022-10-09T17:43:14.806Z,15.30
2022-10-09T17:51:25.516Z,15.73
2022-10-09T17:59:31.350Z,15.43
2022-10-09T18:07:39.401Z,15.23
2022-10-09T18:15:46.649Z,15.60
2022-10-09T18:23:55.051Z,15.93
2022-10-09T18:32:00.337Z,18.27
2022-10-09T18:40:10.127Z,17.73
2022-10-09T18:48:15.519Z,18.13
2022-10-09T18:56:25.099Z,17.55
2022-10-09T19:04:30.454Z,19.48
2022-10-09T19:12:38.652Z,17.65
2022-10-09T19:20:43.959Z,18.88
2022-10-09T19:28:52.226Z,15.00
2022-10-09T19:36:57.536Z,13.68
2022-10-09T19:45:05.507Z,13.88
2022-10-09T19:53:10.839Z,15.63
2022-10-09T20:01:20.680Z,14.65
2022-10-09T20:09:26.234Z,15.60
2022-10-09T20:17:34.205Z,14.98
2022-10-09T20:25:39.539Z,15.00
2022-10-09T20:33:48.760Z,14.82
2022-10-09T20:41:54.086Z,13.95
2022-10-09T20:50:02.072Z,15.38
2022-10-09T20:58:07.673Z,15.95
2022-10-09T21:06:17.932Z,14.75
2022-10-09T21:14:23.219Z,13.82
2022-10-09T21:22:31.176Z,13.32
2022-10-09T21:30:41.857Z,14.20
2022-10-09T21:38:49.811Z,14.73
2022-10-09T21:46:55.139Z,13.95
2022-10-09T21:55:03.139Z,14.55
2022-10-09T22:03:08.712Z,14.10
2022-10-09T22:11:16.605Z,14.50
2022-10-09T22:19:21.817Z,15.23
2022-10-09T22:27:29.741Z,16.20
2022-10-09T22:35:34.927Z,16.05
2022-10-09T22:43:43.596Z,16.42
2022-10-09T22:51:49.003Z,16.80
2022-10-09T22:59:56.863Z,16.55
2022-10-09T23:08:02.115Z,14.85
2022-10-09T23:16:12.471Z,16.00
2022-10-09T23:24:18.835Z,16.13
2022-10-09T23:32:26.793Z,15.50
2022-10-09T23:40:32.089Z,14.95
2022-10-09T23:48:40.224Z,13.27
2022-10-09T23:56:45.670Z,14.15
